Time;durP1;ratioP1;P1;durP2;ratioP2;P2;SDS_P1;SDS_P2;PMS_P1;PMS_P2;Temp;Humidity;BMP_temperature;BMP_pressure;BME280_temperature;BME280_humidity;BME280_pressure;Samples;Min_cycle;Max_cycle;Signal;HPM_P1;HPM_P2
2020/12/31 00:00:24;;;;;;;;;;;3.60;99.90;;;;;;5014024;28;19912;-68
2020/12/31 00:02:49;;;;;;;;;;;3.50;99.90;;;;;;5004224;28;19914;-68
2020/12/31 00:05:15;;;;;;;;;;;3.40;99.90;;;;;;5002992;28;20718;-68
2020/12/31 00:07:40;;;;;;;;;;;3.30;99.90;;;;;;5020370;28;19921;-68
2020/12/31 00:10:06;;;;;;;;;;;3.30;99.90;;;;;;5011686;28;20532;-68
2020/12/31 00:12:31;;;;;;;;;;;3.30;99.90;;;;;;5021729;28;19956;-67
2020/12/31 00:14:59;;;;;;;;;;;3.30;99.90;;;;;;5008544;28;19925;-67
2020/12/31 00:17:24;;;;;;;;;;;3.20;99.90;;;;;;5014813;28;19917;-68
2020/12/31 00:19:50;;;;;;;;;;;3.50;99.90;;;;;;5012840;28;19932;-68
2020/12/31 00:22:15;;;;;;;;;;;3.50;99.90;;;;;;5006745;28;19921;-67
2020/12/31 00:24:41;;;;;;;;;;;3.60;99.90;;;;;;5002537;28;19940;-68
2020/12/31 00:27:06;;;;;;;;;;;3.60;99.90;;;;;;5009993;28;20456;-67
2020/12/31 00:29:32;;;;;;;;;;;3.50;99.90;;;;;;5002867;28;19996;-67
2020/12/31 00:31:57;;;;;;;;;;;3.50;99.90;;;;;;5008048;28;19937;-67
2020/12/31 00:34:23;;;;;;;;;;;3.60;99.90;;;;;;5007689;28;19988;-68
2020/12/31 00:36:50;;;;;;;;;;;3.60;99.90;;;;;;5008246;28;19959;-67
2020/12/31 00:39:15;;;;;;;;;;;3.50;99.90;;;;;;4997293;28;20215;-67
2020/12/31 00:41:41;;;;;;;;;;;3.50;99.90;;;;;;4995043;28;19992;-67
2020/12/31 00:44:07;;;;;;;;;;;3.40;99.90;;;;;;5003695;28;19920;-68
2020/12/31 00:46:32;;;;;;;;;;;4.20;99.90;;;;;;5008082;28;19987;-68
2020/12/31 00:48:59;;;;;;;;;;;3.50;99.90;;;;;;5022112;28;19917;-67
2020/12/31 00:51:25;;;;;;;;;;;6.10;99.90;;;;;;5018960;28;19960;-67
2020/12/31 00:53:50;;;;;;;;;;;3.40;99.90;;;;;;4999379;28;19953;-67
2020/12/31 00:56:16;;;;;;;;;;;3.40;99.90;;;;;;5007655;28;19913;-67
2020/12/31 00:58:41;;;;;;;;;;;3.40;99.90;;;;;;5005787;28;19929;-69
2020/12/31 01:01:07;;;;;;;;;;;3.40;99.90;;;;;;4995109;28;20008;-67
2020/12/31 01:03:32;;;;;;;;;;;3.50;99.90;;;;;;4998174;28;19913;-67
2020/12/31 01:05:58;;;;;;;;;;;3.40;99.90;;;;;;5004906;28;19909;-67
2020/12/31 01:08:25;;;;;;;;;;;3.50;99.90;;;;;;5001531;28;20416;-69
2020/12/31 01:10:50;;;;;;;;;;;3.50;99.90;;;;;;4997381;28;19921;-69
2020/12/31 01:13:16;;;;;;;;;;;3.50;99.90;;;;;;5020124;28;20382;-67
2020/12/31 01:15:41;;;;;;;;;;;3.50;99.90;;;;;;5017742;28;19917;-67
2020/12/31 01:18:07;;;;;;;;;;;3.60;99.90;;;;;;5020069;28;20079;-67
2020/12/31 01:20:33;;;;;;;;;;;3.60;99.90;;;;;;5021453;28;19917;-67
2020/12/31 01:22:59;;;;;;;;;;;3.60;99.90;;;;;;5019725;28;20426;-67
2020/12/31 01:25:25;;;;;;;;;;;3.60;99.90;;;;;;5009002;28;19913;-67
2020/12/31 01:27:50;;;;;;;;;;;3.60;99.90;;;;;;5007004;28;19920;-67
2020/12/31 01:30:16;;;;;;;;;;;3.60;99.90;;;;;;5001071;28;19949;-67
2020/12/31 01:32:41;;;;;;;;;;;3.60;99.90;;;;;;5018547;28;19917;-67
2020/12/31 01:35:07;;;;;;;;;;;3.60;99.90;;;;;;5016129;28;19920;-67
2020/12/31 01:37:33;;;;;;;;;;;3.50;99.90;;;;;;5019725;28;19920;-67
2020/12/31 01:39:58;;;;;;;;;;;3.50;99.90;;;;;;5009882;28;19918;-67
2020/12/31 01:42:24;;;;;;;;;;;3.50;99.90;;;;;;5007745;28;20373;-68
2020/12/31 01:44:49;;;;;;;;;;;3.40;99.90;;;;;;5010476;28;19917;-68
2020/12/31 01:47:15;;;;;;;;;;;3.30;99.90;;;;;;5019879;28;19953;-68
2020/12/31 01:49:41;;;;;;;;;;;3.20;99.90;;;;;;5024139;28;19920;-68
2020/12/31 01:52:07;;;;;;;;;;;3.20;99.90;;;;;;5022557;28;19913;-68
2020/12/31 01:54:33;;;;;;;;;;;3.20;99.90;;;;;;5025703;28;19913;-70
2020/12/31 01:56:58;;;;;;;;;;;3.20;99.90;;;;;;5023476;28;20465;-70
2020/12/31 01:59:24;;;;;;;;;;;3.20;99.90;;;;;;5012534;28;19933;-71
2020/12/31 02:01:50;;;;;;;;;;;3.20;99.90;;;;;;5012945;28;20352;-71
2020/12/31 02:04:16;;;;;;;;;;;3.20;99.90;;;;;;5010301;28;20023;-70
2020/12/31 02:06:42;;;;;;;;;;;3.20;99.90;;;;;;5010717;28;20004;-71
2020/12/31 02:09:08;;;;;;;;;;;3.10;99.90;;;;;;5010603;28;19913;-70
2020/12/31 02:11:33;;;;;;;;;;;3.10;99.90;;;;;;5014414;28;20422;-70
2020/12/31 02:13:59;;;;;;;;;;;3.10;99.90;;;;;;5003989;28;19917;-70
2020/12/31 02:16:26;;;;;;;;;;;3.10;99.90;;;;;;5019247;28;20008;-70
2020/12/31 02:19:22;;;;;;;;;;;3.10;99.90;;;;;;5018994;28;19929;-68
2020/12/31 02:21:47;;;;;;;;;;;6.40;99.90;;;;;;5024205;28;19984;-70
2020/12/31 02:24:13;;;;;;;;;;;3.20;99.90;;;;;;5023843;28;19917;-70
2020/12/31 02:26:40;;;;;;;;;;;3.20;99.90;;;;;;5021324;28;19917;-70
2020/12/31 02:29:06;;;;;;;;;;;3.20;99.90;;;;;;5016832;28;19925;-70
2020/12/31 02:31:33;;;;;;;;;;;3.20;99.90;;;;;;5019828;28;19914;-69
2020/12/31 02:33:58;;;;;;;;;;;3.20;99.90;;;;;;5022258;28;19913;-70
2020/12/31 02:36:28;;;;;;;;;;;3.20;99.90;;;;;;5016936;28;19924;-70
2020/12/31 02:38:54;;;;;;;;;;;3.20;99.90;;;;;;5013005;28;20289;-70
2020/12/31 02:41:20;;;;;;;;;;;3.20;99.90;;;;;;5016234;28;20274;-70
2020/12/31 02:43:45;;;;;;;;;;;3.30;99.90;;;;;;5023011;28;19913;-70
2020/12/31 02:46:12;;;;;;;;;;;3.30;99.90;;;;;;5022280;28;19913;-70
2020/12/31 02:48:38;;;;;;;;;;;3.20;99.90;;;;;;5023533;28;19920;-68
2020/12/31 02:51:03;;;;;;;;;;;3.20;99.90;;;;;;5026411;28;19939;-68
2020/12/31 02:53:29;;;;;;;;;;;3.30;99.90;;;;;;5014117;28;19917;-68
2020/12/31 02:55:54;;;;;;;;;;;3.30;99.90;;;;;;5013346;28;20357;-69
2020/12/31 02:58:20;;;;;;;;;;;3.30;99.90;;;;;;5019712;28;19929;-69
2020/12/31 03:00:45;;;;;;;;;;;3.20;99.90;;;;;;5016498;28;19917;-69
2020/12/31 03:03:11;;;;;;;;;;;3.20;99.90;;;;;;5018314;28;20352;-70
2020/12/31 03:05:36;;;;;;;;;;;3.20;99.90;;;;;;5013237;28;19944;-69
2020/12/31 03:08:02;;;;;;;;;;;3.20;99.90;;;;;;5024594;28;20013;-70
2020/12/31 03:10:28;;;;;;;;;;;3.20;99.90;;;;;;5025639;28;20463;-69
2020/12/31 03:12:53;;;;;;;;;;;3.20;99.90;;;;;;5016478;28;20350;-69
2020/12/31 03:15:20;;;;;;;;;;;3.20;99.90;;;;;;5017383;28;19917;-70
2020/12/31 03:17:45;;;;;;;;;;;3.20;99.90;;;;;;5024250;28;19913;-70
2020/12/31 03:20:11;;;;;;;;;;;3.10;99.90;;;;;;5012068;28;20464;-70
2020/12/31 03:22:36;;;;;;;;;;;3.20;99.90;;;;;;5009407;28;20648;-69
2020/12/31 03:25:02;;;;;;;;;;;3.20;99.90;;;;;;5008515;28;19960;-70
2020/12/31 03:27:28;;;;;;;;;;;3.30;99.90;;;;;;5017576;28;19921;-69
2020/12/31 03:29:53;;;;;;;;;;;3.30;99.90;;;;;;5022143;28;19923;-69
2020/12/31 03:32:19;;;;;;;;;;;3.30;99.90;;;;;;5019893;28;20016;-70
2020/12/31 03:34:44;;;;;;;;;;;3.30;99.90;;;;;;5017708;28;19913;-69
2020/12/31 03:37:10;;;;;;;;;;;3.30;99.90;;;;;;4992067;28;20393;-68
2020/12/31 03:39:36;;;;;;;;;;;3.20;99.90;;;;;;5006042;28;19926;-68
2020/12/31 03:42:01;;;;;;;;;;;3.20;99.90;;;;;;5013171;28;19920;-70
2020/12/31 03:44:27;;;;;;;;;;;3.20;99.90;;;;;;5020497;28;19956;-70
2020/12/31 03:46:53;;;;;;;;;;;3.20;99.90;;;;;;5023640;28;19936;-68
2020/12/31 03:49:19;;;;;;;;;;;3.10;99.90;;;;;;5028611;28;19939;-70
2020/12/31 03:51:44;;;;;;;;;;;3.10;99.90;;;;;;5028361;28;19913;-70
2020/12/31 03:54:10;;;;;;;;;;;3.10;99.90;;;;;;5007698;28;19922;-70
2020/12/31 03:56:36;;;;;;;;;;;3.00;99.90;;;;;;5021238;28;19940;-70
2020/12/31 03:59:03;;;;;;;;;;;3.00;99.90;;;;;;5025451;28;19926;-70
2020/12/31 04:01:28;;;;;;;;;;;3.00;99.90;;;;;;5010194;28;19921;-70
2020/12/31 04:03:54;;;;;;;;;;;3.00;99.90;;;;;;5022672;28;19913;-70
2020/12/31 04:06:19;;;;;;;;;;;2.90;99.90;;;;;;5012935;28;19917;-71
2020/12/31 04:08:45;;;;;;;;;;;2.90;99.90;;;;;;5024796;28;19913;-71
2020/12/31 04:11:10;;;;;;;;;;;2.90;99.90;;;;;;5014260;28;20460;-71
2020/12/31 04:13:36;;;;;;;;;;;2.90;99.90;;;;;;5016536;28;19956;-70
2020/12/31 04:16:01;;;;;;;;;;;3.00;99.90;;;;;;5016129;28;19914;-70
2020/12/31 04:18:27;;;;;;;;;;;3.00;99.90;;;;;;5026358;28;20365;-71
2020/12/31 04:20:52;;;;;;;;;;;2.90;99.90;;;;;;5016888;28;19913;-70
2020/12/31 04:23:18;;;;;;;;;;;2.90;99.90;;;;;;5019543;28;19917;-70
2020/12/31 04:25:43;;;;;;;;;;;2.90;99.90;;;;;;5016172;28;20437;-70
2020/12/31 04:28:09;;;;;;;;;;;3.00;99.90;;;;;;5007815;28;19929;-71
2020/12/31 04:30:34;;;;;;;;;;;2.90;99.90;;;;;;5021021;28;19936;-70
2020/12/31 04:33:00;;;;;;;;;;;3.00;99.90;;;;;;5022319;28;19961;-71
2020/12/31 04:35:25;;;;;;;;;;;3.00;99.90;;;;;;5010759;28;20304;-70
2020/12/31 04:37:51;;;;;;;;;;;3.00;99.90;;;;;;5018561;28;19967;-70
2020/12/31 04:40:16;;;;;;;;;;;3.00;99.90;;;;;;5021559;28;19917;-70
2020/12/31 04:42:42;;;;;;;;;;;3.00;99.90;;;;;;5011684;28;19960;-70
2020/12/31 04:45:07;;;;;;;;;;;3.00;99.90;;;;;;5011625;28;19945;-71
2020/12/31 04:47:35;;;;;;;;;;;3.00;99.90;;;;;;5020023;28;19914;-71
2020/12/31 04:50:02;;;;;;;;;;;2.90;99.90;;;;;;5023497;28;19914;-70
2020/12/31 04:52:31;;;;;;;;;;;3.00;99.90;;;;;;5012374;28;19913;-70
2020/12/31 04:54:56;;;;;;;;;;;3.00;99.90;;;;;;4999833;28;19918;-70
2020/12/31 04:57:22;;;;;;;;;;;3.00;99.90;;;;;;5006027;28;19980;-70
2020/12/31 04:59:47;;;;;;;;;;;3.00;99.90;;;;;;5018551;28;19921;-70
2020/12/31 05:02:13;;;;;;;;;;;3.00;99.90;;;;;;5027107;28;19920;-71
2020/12/31 05:04:38;;;;;;;;;;;3.00;99.90;;;;;;5004683;28;19914;-71
2020/12/31 05:07:03;;;;;;;;;;;3.00;99.90;;;;;;5019142;28;19996;-70
2020/12/31 05:09:29;;;;;;;;;;;2.90;99.90;;;;;;5020755;28;20277;-70
2020/12/31 05:11:55;;;;;;;;;;;3.00;99.90;;;;;;5004395;28;20515;-70
2020/12/31 05:14:26;;;;;;;;;;;3.00;99.90;;;;;;5011879;28;19909;-70
2020/12/31 05:16:52;;;;;;;;;;;3.00;99.90;;;;;;5005484;28;20425;-70
2020/12/31 05:19:21;;;;;;;;;;;3.00;99.90;;;;;;5003249;28;19918;-70
2020/12/31 05:21:47;;;;;;;;;;;3.00;99.90;;;;;;5006255;28;20430;-71
2020/12/31 05:24:13;;;;;;;;;;;3.00;99.90;;;;;;5004420;28;20004;-70
2020/12/31 05:26:39;;;;;;;;;;;3.00;99.90;;;;;;5004271;28;20427;-67
2020/12/31 05:29:05;;;;;;;;;;;3.00;99.90;;;;;;5010415;28;19920;-70
2020/12/31 05:31:50;;;;;;;;;;;3.00;99.90;;;;;;5017603;28;19917;-70
2020/12/31 05:34:28;;;;;;;;;;;3.00;99.90;;;;;;5012010;28;19909;-70
2020/12/31 05:36:54;;;;;;;;;;;3.00;99.90;;;;;;5001073;28;19913;-70
2020/12/31 05:39:19;;;;;;;;;;;3.00;99.90;;;;;;5008447;28;20079;-70
2020/12/31 05:41:45;;;;;;;;;;;3.00;99.90;;;;;;5017938;28;21630;-70
2020/12/31 05:44:11;;;;;;;;;;;3.00;99.90;;;;;;5011306;28;19910;-71
2020/12/31 05:46:37;;;;;;;;;;;3.10;99.90;;;;;;5011672;28;19916;-71
2020/12/31 05:49:05;;;;;;;;;;;3.00;99.90;;;;;;5018509;28;19935;-70
2020/12/31 05:51:32;;;;;;;;;;;3.10;99.90;;;;;;5019138;28;19916;-71
2020/12/31 05:54:13;;;;;;;;;;;3.00;99.90;;;;;;5011812;28;19917;-71
2020/12/31 05:56:43;;;;;;;;;;;3.00;99.90;;;;;;4999238;28;19921;-71
2020/12/31 05:59:24;;;;;;;;;;;3.10;99.90;;;;;;5001726;28;19979;-71
2020/12/31 06:01:53;;;;;;;;;;;3.00;99.90;;;;;;5009531;28;20060;-71
2020/12/31 06:04:19;;;;;;;;;;;3.00;99.90;;;;;;5006287;28;19956;-71
2020/12/31 06:06:49;;;;;;;;;;;3.00;99.90;;;;;;5009687;28;19914;-70
2020/12/31 06:09:24;;;;;;;;;;;3.00;99.90;;;;;;4997536;28;19913;-71
2020/12/31 06:11:50;;;;;;;;;;;3.00;99.90;;;;;;5010485;28;20368;-68
2020/12/31 06:14:19;;;;;;;;;;;3.00;99.90;;;;;;5003935;28;19979;-68
2020/12/31 06:16:53;;;;;;;;;;;3.00;99.90;;;;;;5016929;28;19953;-71
2020/12/31 06:19:51;;;;;;;;;;;3.00;99.90;;;;;;4992173;28;20258;-71
2020/12/31 06:22:25;;;;;;;;;;;3.00;99.90;;;;;;4998864;28;20393;-71
2020/12/31 06:24:57;;;;;;;;;;;3.00;99.90;;;;;;5008432;28;19917;-71
2020/12/31 06:27:35;;;;;;;;;;;3.10;99.90;;;;;;5008056;28;20369;-69
2020/12/31 06:30:00;;;;;;;;;;;2.10;99.90;;;;;;5006051;28;19916;-69
2020/12/31 06:32:36;;;;;;;;;;;3.00;99.90;;;;;;5001521;28;19913;-69
2020/12/31 06:35:03;;;;;;;;;;;3.00;99.90;;;;;;4994620;28;19916;-69
2020/12/31 06:37:29;;;;;;;;;;;3.10;99.90;;;;;;4991065;28;19916;-72
2020/12/31 06:40:14;;;;;;;;;;;3.10;99.90;;;;;;5007035;28;20387;-72
2020/12/31 06:42:58;;;;;;;;;;;3.10;99.90;;;;;;5010231;28;20369;-71
2020/12/31 06:45:33;;;;;;;;;;;3.00;99.90;;;;;;5007495;28;20373;-71
2020/12/31 06:47:59;;;;;;;;;;;3.00;99.90;;;;;;4998336;28;19910;-69
2020/12/31 06:50:43;;;;;;;;;;;3.00;99.90;;;;;;4994334;28;20392;-69
2020/12/31 06:53:27;;;;;;;;;;;3.00;99.90;;;;;;5009379;28;19910;-69
2020/12/31 06:55:53;;;;;;;;;;;3.00;99.90;;;;;;5011197;28;19910;-71
2020/12/31 06:58:22;;;;;;;;;;;3.00;99.90;;;;;;5004801;28;20281;-69
2020/12/31 07:00:48;;;;;;;;;;;3.00;99.90;;;;;;5010901;28;19917;-69
2020/12/31 07:03:13;;;;;;;;;;;3.00;99.90;;;;;;5011126;28;19909;-69
2020/12/31 07:05:39;;;;;;;;;;;3.00;99.90;;;;;;4996512;28;19909;-68
2020/12/31 07:08:04;;;;;;;;;;;3.00;99.90;;;;;;5008796;28;20384;-69
2020/12/31 07:10:43;;;;;;;;;;;3.00;99.90;;;;;;5007362;28;20441;-69
2020/12/31 07:13:28;;;;;;;;;;;3.00;99.90;;;;;;5006562;28;19917;-69
2020/12/31 07:15:53;;;;;;;;;;;2.90;99.90;;;;;;5004472;28;19914;-69
2020/12/31 07:18:19;;;;;;;;;;;3.00;99.90;;;;;;5003976;28;19928;-71
2020/12/31 07:20:46;;;;;;;;;;;2.90;99.90;;;;;;5015812;28;19920;-71
2020/12/31 07:23:12;;;;;;;;;;;2.90;99.90;;;;;;5012260;28;19917;-72
2020/12/31 07:25:43;;;;;;;;;;;2.90;99.90;;;;;;5004795;28;20008;-71
2020/12/31 07:28:16;;;;;;;;;;;2.90;99.90;;;;;;5005287;28;19922;-69
2020/12/31 07:30:51;;;;;;;;;;;2.90;99.90;;;;;;5015980;28;20000;-70
2020/12/31 07:33:36;;;;;;;;;;;2.90;99.90;;;;;;5023069;28;19922;-70
2020/12/31 07:36:12;;;;;;;;;;;2.90;99.90;;;;;;5007427;28;20432;-70
2020/12/31 07:38:38;;;;;;;;;;;2.90;99.90;;;;;;5012411;28;20357;-70
2020/12/31 07:41:03;;;;;;;;;;;2.90;99.90;;;;;;5014315;28;19916;-70
2020/12/31 07:43:30;;;;;;;;;;;2.90;99.90;;;;;;4997968;28;19921;-70
2020/12/31 07:46:00;;;;;;;;;;;2.80;99.90;;;;;;5020517;28;20017;-70
2020/12/31 07:48:27;;;;;;;;;;;2.90;99.90;;;;;;5014668;28;19921;-70
2020/12/31 07:50:53;;;;;;;;;;;2.90;99.90;;;;;;5011162;28;19921;-70
2020/12/31 07:53:19;;;;;;;;;;;2.90;99.90;;;;;;5024400;28;20000;-70
2020/12/31 07:55:48;;;;;;;;;;;2.90;99.90;;;;;;5004883;28;20000;-70
2020/12/31 07:58:15;;;;;;;;;;;2.90;99.90;;;;;;4990561;28;19954;-70
2020/12/31 08:00:41;;;;;;;;;;;2.80;99.90;;;;;;5007497;28;19913;-70
2020/12/31 08:03:11;;;;;;;;;;;2.90;99.90;;;;;;5010233;28;19913;-70
2020/12/31 08:05:38;;;;;;;;;;;2.90;99.90;;;;;;5009881;28;19949;-70
2020/12/31 08:08:04;;;;;;;;;;;2.90;99.90;;;;;;5011112;28;19914;-70
2020/12/31 08:10:33;;;;;;;;;;;2.90;99.90;;;;;;5010069;28;19924;-70
2020/12/31 08:13:00;;;;;;;;;;;2.90;99.90;;;;;;5011517;28;19960;-70
2020/12/31 08:15:26;;;;;;;;;;;2.90;99.90;;;;;;5007301;28;20270;-70
2020/12/31 08:17:52;;;;;;;;;;;2.90;99.90;;;;;;5011427;28;19917;-70
2020/12/31 08:20:19;;;;;;;;;;;2.90;99.90;;;;;;5007424;28;19964;-70
2020/12/31 08:22:52;;;;;;;;;;;2.90;99.90;;;;;;5004367;28;19917;-70
2020/12/31 08:25:23;;;;;;;;;;;2.90;99.90;;;;;;5001659;28;19948;-68
2020/12/31 08:27:49;;;;;;;;;;;2.90;99.90;;;;;;4996036;28;20289;-70
2020/12/31 08:30:17;;;;;;;;;;;6.80;99.90;;;;;;4998871;28;19918;-69
2020/12/31 08:32:49;;;;;;;;;;;3.00;99.90;;;;;;4994753;28;19940;-68
2020/12/31 08:35:19;;;;;;;;;;;3.00;99.90;;;;;;4992432;28;20000;-68
2020/12/31 08:37:46;;;;;;;;;;;3.00;99.90;;;;;;4992218;28;20627;-68
2020/12/31 08:40:18;;;;;;;;;;;3.00;99.90;;;;;;4990736;28;20382;-69
2020/12/31 08:42:50;;;;;;;;;;;3.00;99.90;;;;;;4996646;28;19918;-69
2020/12/31 08:45:23;;;;;;;;;;;3.00;99.90;;;;;;4991418;28;19918;-69
2020/12/31 08:47:48;;;;;;;;;;;3.00;99.90;;;;;;5001824;28;19921;-69
2020/12/31 08:50:15;;;;;;;;;;;3.00;99.90;;;;;;4999643;28;20564;-71
2020/12/31 08:52:40;;;;;;;;;;;3.00;99.90;;;;;;5006760;28;20082;-69
2020/12/31 08:55:11;;;;;;;;;;;2.90;99.90;;;;;;4991762;28;19961;-69
2020/12/31 08:57:36;;;;;;;;;;;3.00;99.90;;;;;;4995131;28;20326;-69
2020/12/31 09:00:03;;;;;;;;;;;3.00;99.90;;;;;;5009792;28;20365;-71
2020/12/31 09:02:29;;;;;;;;;;;3.00;99.90;;;;;;5002527;28;19919;-71
2020/12/31 09:05:10;;;;;;;;;;;7.90;99.90;;;;;;4990211;28;19913;-72
2020/12/31 09:07:36;;;;;;;;;;;3.00;99.90;;;;;;4991772;28;19932;-71
2020/12/31 09:10:15;;;;;;;;;;;3.10;99.90;;;;;;4990833;28;19914;-69
2020/12/31 09:12:41;;;;;;;;;;;3.10;99.90;;;;;;4994285;28;20468;-72
2020/12/31 09:15:06;;;;;;;;;;;3.10;99.90;;;;;;4992646;28;19917;-71
2020/12/31 09:17:33;;;;;;;;;;;3.10;99.90;;;;;;4995601;28;20062;-71
2020/12/31 09:19:58;;;;;;;;;;;3.10;99.90;;;;;;4990649;28;20642;-68
2020/12/31 09:22:25;;;;;;;;;;;3.20;99.90;;;;;;4991512;28;19917;-70
2020/12/31 09:24:50;;;;;;;;;;;3.30;99.90;;;;;;4992888;28;19951;-71
2020/12/31 09:27:22;;;;;;;;;;;3.20;99.90;;;;;;4988793;28;19926;-71
2020/12/31 09:29:54;;;;;;;;;;;3.30;99.90;;;;;;4991070;28;20415;-70
2020/12/31 09:32:20;;;;;;;;;;;3.20;99.90;;;;;;4991857;28;19917;-71
2020/12/31 09:34:45;;;;;;;;;;;2.70;99.90;;;;;;4991425;28;19922;-71
2020/12/31 09:37:12;;;;;;;;;;;3.40;99.90;;;;;;5000919;28;19941;-73
2020/12/31 09:39:37;;;;;;;;;;;3.50;99.90;;;;;;4998636;28;19918;-69
2020/12/31 09:42:03;;;;;;;;;;;3.50;99.90;;;;;;4995157;28;19921;-70
2020/12/31 09:44:28;;;;;;;;;;;3.40;99.90;;;;;;5004956;28;20416;-72
2020/12/31 09:46:54;;;;;;;;;;;3.30;99.90;;;;;;4994948;28;19914;-71
2020/12/31 09:49:19;;;;;;;;;;;3.40;99.90;;;;;;4993932;28;20262;-71
2020/12/31 09:51:46;;;;;;;;;;;3.40;99.90;;;;;;5003224;28;20016;-71
2020/12/31 09:54:12;;;;;;;;;;;3.40;99.90;;;;;;4992579;28;19922;-71
2020/12/31 09:56:37;;;;;;;;;;;3.50;99.90;;;;;;4993716;28;19960;-71
2020/12/31 09:59:04;;;;;;;;;;;3.40;99.90;;;;;;5000808;28;20520;-71
2020/12/31 10:01:32;;;;;;;;;;;3.60;99.90;;;;;;4993990;28;19920;-71
2020/12/31 10:03:58;;;;;;;;;;;3.60;99.90;;;;;;4988690;28;20290;-71
2020/12/31 10:06:23;;;;;;;;;;;3.70;99.90;;;;;;4987911;28;20377;-68
2020/12/31 10:08:49;;;;;;;;;;;3.80;99.90;;;;;;4991559;28;19929;-71
2020/12/31 10:11:14;;;;;;;;;;;3.70;99.90;;;;;;5014656;28;20365;-72
2020/12/31 10:13:40;;;;;;;;;;;3.90;99.90;;;;;;5001795;28;20535;-71
2020/12/31 10:16:05;;;;;;;;;;;4.00;99.90;;;;;;4990058;28;19925;-67
2020/12/31 10:18:31;;;;;;;;;;;4.10;99.90;;;;;;5004363;28;20568;-71
2020/12/31 10:20:57;;;;;;;;;;;4.10;99.90;;;;;;4994284;28;20008;-71
2020/12/31 10:23:22;;;;;;;;;;;4.10;99.90;;;;;;4992051;28;20008;-71
2020/12/31 10:25:48;;;;;;;;;;;4.10;99.90;;;;;;4996127;28;20001;-69
2020/12/31 10:28:14;;;;;;;;;;;4.20;99.90;;;;;;4995657;28;19991;-69
2020/12/31 10:30:39;;;;;;;;;;;4.20;99.90;;;;;;5017152;28;20280;-72
2020/12/31 10:33:05;;;;;;;;;;;4.30;99.90;;;;;;4999577;28;19914;-71
2020/12/31 10:35:30;;;;;;;;;;;4.30;99.90;;;;;;4999972;28;20368;-72
2020/12/31 10:37:56;;;;;;;;;;;4.20;99.90;;;;;;5006198;28;19917;-63
2020/12/31 10:43:46;;;;;;;5.72;1.80;;;11.70;99.90;;;;;;5115116;27;20373;-75
2020/12/31 10:46:12;;;;;;;5.43;1.90;;;14.60;90.70;;;;;;5103401;28;20365;-76
2020/12/31 10:52:23;;;;;;;4.53;1.70;;;17.10;85.60;;;;;;4946232;27;20442;-70
2020/12/31 10:54:49;;;;;;;4.38;1.60;;;17.70;79.70;;;;;;4795480;28;20057;-79
2020/12/31 10:57:15;;;;;;;5.75;2.13;;;17.70;81.40;;;;;;5008965;28;20049;-59
2020/12/31 10:59:40;;;;;;;5.78;2.35;;;13.20;70.10;;;;;;5050925;28;20098;-60
2020/12/31 11:02:06;;;;;;;6.70;2.53;;;8.70;95.30;;;;;;5052984;28;20033;-60
2020/12/31 11:04:32;;;;;;;6.53;2.50;;;6.70;99.90;;;;;;5051209;28;20028;-60
2020/12/31 11:06:57;;;;;;;5.28;2.03;;;5.60;99.90;;;;;;4987864;28;20040;-61
2020/12/31 11:09:23;;;;;;;5.75;2.55;;;5.10;99.90;;;;;;5052878;28;20489;-61
2020/12/31 11:11:50;;;;;;;6.53;2.40;;;4.70;99.90;;;;;;5060668;28;20044;-60
2020/12/31 11:14:16;;;;;;;6.82;2.65;;;4.60;99.90;;;;;;5059201;28;20392;-60
2020/12/31 11:16:47;;;;;;;8.80;3.28;;;4.40;99.90;;;;;;5062093;28;20028;-61
2020/12/31 11:19:13;;;;;;;7.50;2.97;;;4.50;99.90;;;;;;5053972;28;20044;-61
2020/12/31 11:21:39;;;;;;;6.70;2.63;;;4.50;99.90;;;;;;5070530;28;20068;-60
2020/12/31 11:24:04;;;;;;;6.60;2.72;;;4.50;99.90;;;;;;5070967;28;20028;-61
2020/12/31 11:26:30;;;;;;;7.63;2.67;;;4.50;99.90;;;;;;5062386;28;20035;-60
2020/12/31 11:28:57;;;;;;;7.88;2.70;;;4.40;99.90;;;;;;5070085;28;20479;-60
2020/12/31 11:31:28;;;;;;;6.22;2.20;;;4.50;99.90;;;;;;5077611;28;20052;-62
2020/12/31 11:33:55;;;;;;;5.25;2.40;;;4.50;99.90;;;;;;5063669;28;20033;-60
2020/12/31 11:36:22;;;;;;;7.57;2.95;;;4.40;99.90;;;;;;5060860;28;20098;-61
2020/12/31 11:38:52;;;;;;;6.93;2.50;;;4.30;99.90;;;;;;5063681;28;20020;-61
2020/12/31 11:41:18;;;;;;;8.10;2.88;;;4.40;99.90;;;;;;5064579;28;20579;-60
2020/12/31 11:43:44;;;;;;;6.47;2.50;;;4.40;99.90;;;;;;5065916;28;20049;-60
2020/12/31 11:46:11;;;;;;;5.85;2.30;;;4.40;99.90;;;;;;5081305;28;20435;-60
2020/12/31 11:48:37;;;;;;;10.65;2.65;;;4.20;99.90;;;;;;5058837;28;20480;-61
2020/12/31 11:51:03;;;;;;;5.30;2.22;;;4.20;99.90;;;;;;5058420;28;20132;-60
2020/12/31 11:53:29;;;;;;;8.40;2.88;;;4.10;99.90;;;;;;5050319;28;20049;-61
2020/12/31 11:55:58;;;;;;;7.45;2.80;;;4.20;99.90;;;;;;5048072;28;20439;-60
2020/12/31 11:58:24;;;;;;;7.85;2.38;;;4.10;99.90;;;;;;5048065;28;20036;-60
2020/12/31 12:00:50;;;;;;;7.50;2.72;;;4.10;99.90;;;;;;5046779;28;20033;-61
2020/12/31 12:03:15;;;;;;;5.25;2.00;;;4.00;99.90;;;;;;5036894;28;20032;-60
2020/12/31 12:05:42;;;;;;;7.65;2.63;;;4.00;99.90;;;;;;5034146;28;20103;-61
2020/12/31 12:08:08;;;;;;;6.15;2.55;;;3.90;99.90;;;;;;5039348;28;20037;-61
2020/12/31 12:10:34;;;;;;;5.43;2.10;;;3.90;99.90;;;;;;5036380;28;20040;-61
2020/12/31 12:13:01;;;;;;;5.93;2.15;;;3.90;99.90;;;;;;5039609;28;20029;-61
2020/12/31 12:15:27;;;;;;;5.72;2.42;;;3.90;99.90;;;;;;5032851;28;20030;-61
2020/12/31 12:17:52;;;;;;;5.65;2.30;;;3.90;99.90;;;;;;5037666;28;20017;-61
2020/12/31 12:20:19;;;;;;;4.65;1.90;;;3.90;99.90;;;;;;5043376;28;20041;-61
2020/12/31 12:22:45;;;;;;;6.43;2.47;;;3.80;99.90;;;;;;5037501;28;20071;-61
2020/12/31 12:25:11;;;;;;;5.65;2.08;;;3.90;99.90;;;;;;5035630;28;20261;-60
2020/12/31 12:27:37;;;;;;;6.57;2.72;;;3.80;99.90;;;;;;5039235;28;20029;-60
2020/12/31 12:30:09;;;;;;;6.38;2.55;;;3.80;99.90;;;;;;5041955;28;20021;-61
2020/12/31 12:32:35;;;;;;;6.43;2.70;;;3.70;99.90;;;;;;5047261;28;20469;-61
2020/12/31 12:35:01;;;;;;;6.03;2.38;;;3.80;99.90;;;;;;5047149;28;20029;-61
2020/12/31 12:37:27;;;;;;;6.85;2.75;;;3.80;99.90;;;;;;5047159;28;20066;-62
2020/12/31 12:39:52;;;;;;;4.22;1.90;;;3.90;99.90;;;;;;5035117;28;20029;-62
2020/12/31 12:42:18;;;;;;;5.85;2.30;;;3.80;99.90;;;;;;5041620;28;20266;-62
2020/12/31 12:44:43;;;;;;;6.78;2.58;;;3.80;99.90;;;;;;5049683;28;20402;-62
2020/12/31 12:47:09;;;;;;;7.35;2.30;;;3.80;99.90;;;;;;5041884;28;20627;-62
2020/12/31 12:49:35;;;;;;;6.82;2.70;;;3.80;99.90;;;;;;5037412;28;20033;-61
2020/12/31 12:52:04;;;;;;;6.90;2.45;;;3.80;99.90;;;;;;5041402;28;20056;-62
2020/12/31 12:54:29;;;;;;;5.43;2.28;;;3.90;99.90;;;;;;5035878;28;20052;-61
2020/12/31 12:56:55;;;;;;;6.45;2.63;;;3.90;99.90;;;;;;5036630;28;20057;-61
2020/12/31 12:59:21;;;;;;;6.50;2.40;;;3.80;99.90;;;;;;5036693;28;20044;-61
2020/12/31 13:01:46;;;;;;;6.45;2.40;;;4.00;99.90;;;;;;5037243;28;20061;-61
2020/12/31 13:04:12;;;;;;;6.18;2.60;;;4.00;99.90;;;;;;5044009;28;20033;-61
2020/12/31 13:06:38;;;;;;;6.90;2.55;;;4.00;99.90;;;;;;5040279;28;20063;-62
2020/12/31 13:09:05;;;;;;;6.47;2.40;;;3.90;99.90;;;;;;5036536;28;20119;-61
2020/12/31 13:11:30;;;;;;;6.93;2.58;;;3.90;99.90;;;;;;5039927;28;20290;-61
2020/12/31 13:13:56;;;;;;;7.18;2.70;;;4.00;99.90;;;;;;5043455;28;20025;-61
2020/12/31 13:16:22;;;;;;;7.00;2.45;;;4.00;99.90;;;;;;5042711;28;20448;-61
2020/12/31 13:18:48;;;;;;;6.45;2.58;;;4.00;99.90;;;;;;5046088;28;20048;-61
2020/12/31 13:21:18;;;;;;;6.93;2.58;;;4.00;99.90;;;;;;5036011;28;20485;-61
2020/12/31 13:23:44;;;;;;;7.60;2.92;;;4.00;99.90;;;;;;5037381;28;20495;-61
2020/12/31 13:26:10;;;;;;;7.22;2.90;;;4.00;99.90;;;;;;5038708;28;20033;-60
2020/12/31 13:28:35;;;;;;;8.52;3.25;;;4.00;99.90;;;;;;5039005;28;20384;-60
2020/12/31 13:31:02;;;;;;;8.38;3.03;;;3.90;99.90;;;;;;5035833;28;20045;-61
2020/12/31 13:33:28;;;;;;;6.85;2.85;;;4.00;99.90;;;;;;5039393;28;20025;-60
2020/12/31 13:35:53;;;;;;;7.25;3.03;;;4.10;99.90;;;;;;5037207;28;20032;-60
2020/12/31 13:38:19;;;;;;;7.20;2.92;;;4.20;99.90;;;;;;5038432;28;20075;-60
2020/12/31 13:40:44;;;;;;;7.68;2.75;;;4.20;99.90;;;;;;5035075;28;20040;-62
2020/12/31 13:43:10;;;;;;;7.05;2.70;;;4.20;99.90;;;;;;5048480;28;20033;-62
2020/12/31 13:45:36;;;;;;;6.78;3.08;;;4.00;99.90;;;;;;5052010;28;20025;-63
2020/12/31 13:48:02;;;;;;;7.05;2.78;;;4.00;99.90;;;;;;5047804;28;20025;-60
2020/12/31 13:50:28;;;;;;;6.32;2.58;;;4.10;99.90;;;;;;5043895;28;20049;-60
2020/12/31 13:52:53;;;;;;;10.95;3.20;;;3.80;99.90;;;;;;5051985;28;20021;-60
2020/12/31 13:55:19;;;;;;;7.75;3.50;;;4.00;99.90;;;;;;5047136;28;20541;-60
2020/12/31 13:57:45;;;;;;;7.00;2.88;;;4.00;99.90;;;;;;5064362;28;20417;-60
2020/12/31 14:00:11;;;;;;;6.88;2.95;;;4.00;99.90;;;;;;5047515;28;20040;-60
2020/12/31 14:02:37;;;;;;;6.90;2.90;;;4.00;99.90;;;;;;5038813;28;20060;-60
2020/12/31 14:05:04;;;;;;;6.20;2.67;;;4.00;99.90;;;;;;5039588;28;20108;-62
2020/12/31 14:07:30;;;;;;;6.95;2.70;;;4.00;99.90;;;;;;5045327;28;20036;-60
2020/12/31 14:09:56;;;;;;;8.63;3.35;;;4.10;99.90;;;;;;5048155;28;20538;-60